createdAt,value
2018-11-07T00:00:33.971Z,632.00
2018-11-07T00:01:33.906Z,141.10
2018-11-07T00:02:33.866Z,558.60
2018-11-07T00:03:33.829Z,332.70
2018-11-07T00:04:33.796Z,779.20
2018-11-07T00:05:33.774Z,705.60
2018-11-07T00:06:33.698Z,866.50
2018-11-07T00:07:33.659Z,765.40
2018-11-07T00:08:33.748Z,962.70
2018-11-07T00:09:33.578Z,733.30
2018-11-07T00:10:33.531Z,753.50
2018-11-07T00:11:33.487Z,561.70
2018-11-07T00:12:33.448Z,331.60
2018-11-07T00:13:33.426Z,577.70
2018-11-07T00:14:33.361Z,510.30
2018-11-07T00:15:33.325Z,589.10
2018-11-07T00:16:33.305Z,699.00
2018-11-07T00:17:33.257Z,564.30
2018-11-07T00:18:33.193Z,868.90
2018-11-07T00:19:33.222Z,750.00
2018-11-07T00:20:33.138Z,633.60
2018-11-07T00:21:33.075Z,776.10
2018-11-07T00:22:33.067Z,909.10
2018-11-07T00:23:33.006Z,748.60
2018-11-07T00:24:32.972Z,778.90
2018-11-07T00:25:32.911Z,426.70
2018-11-07T00:26:32.985Z,182.80
2018-11-07T00:27:32.834Z,212.00
2018-11-07T00:28:32.820Z,574.70
2018-11-07T00:29:32.744Z,683.50
2018-11-07T00:30:32.726Z,672.10
2018-11-07T00:31:32.682Z,765.80
2018-11-07T00:32:32.628Z,558.30
2018-11-07T00:33:32.616Z,649.30
2018-11-07T00:34:32.546Z,443.00
2018-11-07T00:35:32.520Z,475.40
2018-11-07T00:36:32.460Z,373.90
2018-11-07T00:37:32.418Z,547.80
2018-11-07T00:38:32.378Z,600.60
2018-11-07T00:39:32.329Z,665.80
2018-11-07T00:40:32.299Z,488.30
2018-11-07T00:41:32.262Z,494.60
2018-11-07T00:42:32.213Z,542.50
2018-11-07T00:43:32.168Z,678.00
2018-11-07T00:44:32.136Z,496.10
2018-11-07T00:45:32.093Z,721.50
2018-11-07T00:46:32.050Z,675.30
2018-11-07T00:47:32.009Z,763.30
2018-11-07T00:48:31.982Z,595.30
2018-11-07T00:49:31.937Z,501.00
2018-11-07T00:50:31.876Z,299.20
2018-11-07T00:51:31.852Z,176.30
2018-11-07T00:52:31.822Z,166.40
2018-11-07T00:53:31.760Z,182.00
2018-11-07T00:54:31.724Z,227.80
2018-11-07T00:55:31.679Z,290.40
2018-11-07T00:56:31.653Z,437.80
2018-11-07T00:57:31.619Z,300.80
2018-11-07T00:58:31.549Z,286.30
2018-11-07T00:59:31.528Z,249.50
2018-11-07T01:00:31.474Z,264.60
2018-11-07T01:01:31.438Z,473.70
2018-11-07T01:02:31.408Z,621.80
2018-11-07T01:03:31.345Z,437.00
2018-11-07T01:04:31.291Z,520.90
2018-11-07T01:05:31.258Z,633.70
2018-11-07T01:06:31.229Z,242.60
2018-11-07T01:07:31.186Z,266.70
2018-11-07T01:08:31.142Z,227.50
2018-11-07T01:09:31.111Z,490.70
2018-11-07T01:10:31.068Z,646.80
2018-11-07T01:11:31.010Z,559.70
2018-11-07T01:12:30.973Z,313.80
2018-11-07T01:13:30.933Z,223.20
2018-11-07T01:14:30.890Z,593.10
2018-11-07T01:15:30.842Z,614.20
2018-11-07T01:16:30.870Z,386.30
2018-11-07T01:17:30.771Z,175.50
2018-11-07T01:18:30.725Z,177.60
2018-11-07T01:19:30.690Z,109.10
2018-11-07T01:20:30.658Z,163.10
2018-11-07T01:21:30.694Z,120.90
2018-11-07T01:22:30.551Z,108.60
2018-11-07T01:23:30.524Z,98.20
2018-11-07T01:24:30.469Z,499.60
2018-11-07T01:25:30.454Z,393.70
2018-11-07T01:26:30.401Z,188.50
2018-11-07T01:27:30.354Z,251.40
2018-11-07T01:28:30.304Z,966.10
2018-11-07T01:29:30.268Z,961.20
2018-11-07T01:30:30.229Z,769.30
2018-11-07T01:31:30.180Z,1030.70
2018-11-07T01:32:30.148Z,787.70
2018-11-07T01:33:30.103Z,515.00
2018-11-07T01:34:30.071Z,661.20
2018-11-07T01:35:30.042Z,274.90
2018-11-07T01:36:29.977Z,267.90
2018-11-07T01:37:29.944Z,222.40
2018-11-07T01:38:29.908Z,163.20
2018-11-07T01:39:29.853Z,320.40
2018-11-07T01:40:29.817Z,482.50
2018-11-07T01:41:29.784Z,237.80
2018-11-07T01:42:29.734Z,835.80
2018-11-07T01:43:29.700Z,469.20
2018-11-07T01:44:29.693Z,312.60
2018-11-07T01:45:29.607Z,288.50
2018-11-07T01:46:29.561Z,286.90
2018-11-07T01:47:29.521Z,455.20
2018-11-07T01:48:29.492Z,468.70
2018-11-07T01:49:29.445Z,472.40
2018-11-07T01:50:29.416Z,835.90
2018-11-07T01:51:29.384Z,651.10
2018-11-07T01:52:29.326Z,570.50
2018-11-07T01:53:29.278Z,701.00
2018-11-07T01:54:29.226Z,962.80
2018-11-07T01:55:29.216Z,708.40
2018-11-07T01:56:29.149Z,691.90
2018-11-07T01:57:29.102Z,939.80
2018-11-07T01:58:29.072Z,941.10
2018-11-07T01:59:29.061Z,1039.60
2018-11-07T02:00:28.993Z,703.10
2018-11-07T02:01:28.939Z,784.10
2018-11-07T02:02:28.916Z,648.20
2018-11-07T02:03:28.864Z,788.90
2018-11-07T02:04:28.841Z,1019.30
2018-11-07T02:05:28.781Z,794.80
2018-11-07T02:06:28.744Z,690.40
2018-11-07T02:07:28.714Z,894.50
2018-11-07T02:08:28.704Z,706.90
2018-11-07T02:09:28.648Z,796.10
2018-11-07T02:10:28.580Z,805.70
2018-11-07T02:11:28.545Z,405.90
2018-11-07T02:12:28.492Z,1020.30
2018-11-07T02:13:28.441Z,891.70
2018-11-07T02:14:28.400Z,1012.90
2018-11-07T02:15:28.369Z,741.80
2018-11-07T02:16:28.330Z,840.30
2018-11-07T02:17:28.286Z,902.60
2018-11-07T02:18:28.338Z,683.20
2018-11-07T02:19:28.206Z,432.20
2018-11-07T02:20:28.154Z,975.90
2018-11-07T02:21:28.121Z,844.70
2018-11-07T02:22:28.070Z,897.20
2018-11-07T02:23:28.039Z,773.30
2018-11-07T02:24:28.002Z,959.20
2018-11-07T02:25:27.955Z,695.10
2018-11-07T02:26:27.972Z,675.80
2018-11-07T02:27:27.884Z,550.80
2018-11-07T02:28:27.819Z,250.40
2018-11-07T02:29:27.788Z,191.00
2018-11-07T02:30:27.749Z,206.90
2018-11-07T02:31:27.706Z,227.40
2018-11-07T02:32:27.937Z,218.40
2018-11-07T02:33:27.629Z,224.30
2018-11-07T02:34:27.605Z,203.60
2018-11-07T02:35:27.547Z,211.60
2018-11-07T02:36:27.517Z,233.70
2018-11-07T02:37:27.468Z,247.20
2018-11-07T02:38:27.418Z,220.40
2018-11-07T02:39:27.378Z,220.40
2018-11-07T02:40:27.332Z,250.00
2018-11-07T02:41:27.288Z,304.50
2018-11-07T02:42:27.252Z,328.50
2018-11-07T02:43:27.218Z,222.10
2018-11-07T02:44:27.170Z,235.30
2018-11-07T02:45:27.134Z,795.80
2018-11-07T02:46:27.079Z,499.60
2018-11-07T02:47:27.031Z,255.80
2018-11-07T02:48:27.012Z,237.20
2018-11-07T02:49:26.952Z,879.30
2018-11-07T02:50:26.946Z,734.00
2018-11-07T02:51:26.870Z,434.40
2018-11-07T02:52:26.845Z,504.20
2018-11-07T02:53:26.890Z,349.10
2018-11-07T02:54:26.760Z,891.60
2018-11-07T02:55:26.709Z,217.90
2018-11-07T02:56:26.692Z,994.40
2018-11-07T02:57:26.638Z,562.10
2018-11-07T02:58:26.589Z,515.60
2018-11-07T02:59:26.568Z,479.50
2018-11-07T03:00:26.545Z,302.90
2018-11-07T03:01:26.558Z,1034.50
2018-11-07T03:02:26.426Z,681.90
2018-11-07T03:03:26.412Z,643.20
2018-11-07T03:04:26.368Z,1074.40
2018-11-07T03:05:26.308Z,300.30
2018-11-07T03:06:26.258Z,173.60
2018-11-07T03:07:26.243Z,292.10
2018-11-07T03:08:26.193Z,233.70
2018-11-07T03:09:26.135Z,424.80
2018-11-07T03:10:26.132Z,190.10
2018-11-07T03:11:26.066Z,164.70
2018-11-07T03:12:26.011Z,203.20
2018-11-07T03:13:25.985Z,173.30
2018-11-07T03:14:25.940Z,180.90
2018-11-07T03:15:25.888Z,179.00
2018-11-07T03:16:25.860Z,191.30
2018-11-07T03:17:25.824Z,197.90
2018-11-07T03:18:25.777Z,242.00
2018-11-07T03:19:25.737Z,220.00
2018-11-07T03:20:25.693Z,288.00
2018-11-07T03:21:25.658Z,300.70
2018-11-07T03:22:25.619Z,606.70
2018-11-07T03:23:25.577Z,518.10
2018-11-07T03:24:25.529Z,293.90
2018-11-07T03:25:25.479Z,1090.00
2018-11-07T03:26:25.445Z,458.90
2018-11-07T03:27:25.421Z,974.10
2018-11-07T03:28:25.367Z,941.00
2018-11-07T03:29:25.323Z,1021.40
2018-11-07T03:30:25.283Z,1054.80
2018-11-07T03:31:25.263Z,849.20
2018-11-07T03:32:25.208Z,812.20
2018-11-07T03:33:25.161Z,1210.10
2018-11-07T03:34:25.120Z,1004.50
2018-11-07T03:35:25.099Z,997.60
2018-11-07T03:36:25.048Z,1149.60
2018-11-07T03:37:25.005Z,765.80
2018-11-07T03:38:24.964Z,741.20
2018-11-07T03:39:24.909Z,758.60
2018-11-07T03:40:24.882Z,781.60
2018-11-07T03:41:24.836Z,848.40
2018-11-07T03:42:24.788Z,694.10
2018-11-07T03:43:24.760Z,790.90
2018-11-07T03:44:24.714Z,806.60
2018-11-07T03:45:24.670Z,691.20
2018-11-07T03:46:24.635Z,713.80
2018-11-07T03:47:24.587Z,1166.10
2018-11-07T03:48:24.557Z,801.70
2018-11-07T03:49:24.520Z,428.00
2018-11-07T03:50:24.461Z,694.40
2018-11-07T03:51:24.423Z,731.70
2018-11-07T03:52:24.394Z,528.50
2018-11-07T03:53:24.454Z,740.40
2018-11-07T03:54:24.321Z,729.10
2018-11-07T03:55:24.296Z,417.80
2018-11-07T03:56:24.225Z,204.00
2018-11-07T03:57:24.178Z,1056.80
2018-11-07T03:58:24.153Z,404.40
2018-11-07T03:59:24.143Z,275.80
2018-11-07T04:00:24.063Z,254.90
2018-11-07T04:01:24.023Z,184.50
2018-11-07T04:02:23.987Z,171.30
2018-11-07T04:03:23.928Z,222.00
2018-11-07T04:04:23.896Z,169.60
2018-11-07T04:05:23.850Z,164.70
2018-11-07T04:06:23.816Z,146.00
2018-11-07T04:07:23.772Z,180.90
2018-11-07T04:08:23.737Z,169.10
2018-11-07T04:09:23.692Z,151.50
2018-11-07T04:10:23.643Z,147.60
2018-11-07T04:11:23.624Z,183.40
2018-11-07T04:12:23.583Z,212.10
2018-11-07T04:13:23.527Z,166.80
2018-11-07T04:14:23.487Z,205.10
2018-11-07T04:15:23.449Z,172.50
2018-11-07T04:16:23.413Z,179.70
2018-11-07T04:17:23.369Z,158.30
2018-11-07T04:18:23.331Z,354.00
2018-11-07T04:19:23.280Z,753.70
2018-11-07T04:20:23.245Z,710.80
2018-11-07T04:21:23.200Z,292.40
2018-11-07T04:22:23.173Z,391.70
2018-11-07T04:23:23.123Z,307.20
2018-11-07T04:24:23.067Z,915.70
2018-11-07T04:25:23.035Z,811.90
2018-11-07T04:26:22.998Z,877.50
2018-11-07T04:27:22.953Z,460.90
2018-11-07T04:28:22.904Z,659.90
2018-11-07T04:29:22.861Z,1326.10
2018-11-07T04:30:22.837Z,451.70
2018-11-07T04:31:22.826Z,171.70
2018-11-07T04:32:22.790Z,938.80
2018-11-07T04:33:22.709Z,471.10
2018-11-07T04:34:22.671Z,614.70
2018-11-07T04:35:22.614Z,237.30
2018-11-07T04:36:22.581Z,485.80
2018-11-07T04:37:22.536Z,141.10
2018-11-07T04:38:22.498Z,778.70
2018-11-07T04:39:22.451Z,164.10
2018-11-07T04:40:22.420Z,169.80
2018-11-07T04:41:22.387Z,675.60
2018-11-07T04:42:22.336Z,519.70
2018-11-07T04:43:22.311Z,147.20
2018-11-07T04:44:22.245Z,228.20
2018-11-07T04:45:22.314Z,228.80
2018-11-07T04:46:22.166Z,232.60
2018-11-07T04:47:22.127Z,295.00
2018-11-07T04:48:22.097Z,697.10
2018-11-07T04:49:22.040Z,788.50
2018-11-07T04:50:22.003Z,224.50
2018-11-07T04:51:21.972Z,487.30
2018-11-07T04:52:21.931Z,520.80
2018-11-07T04:53:21.879Z,730.40
2018-11-07T04:54:21.840Z,768.10
2018-11-07T04:55:21.800Z,824.60
2018-11-07T04:56:21.753Z,418.90
2018-11-07T04:57:21.724Z,742.20
2018-11-07T04:58:21.675Z,530.90
2018-11-07T04:59:21.635Z,409.60
2018-11-07T05:00:21.685Z,262.80
2018-11-07T05:01:21.586Z,394.00
2018-11-07T05:02:21.527Z,233.50
2018-11-07T05:03:21.475Z,282.30
2018-11-07T05:04:21.432Z,177.80
2018-11-07T05:05:21.389Z,171.00
2018-11-07T05:06:21.369Z,350.00
2018-11-07T05:07:21.309Z,753.40
2018-11-07T05:08:21.283Z,552.10
2018-11-07T05:09:21.234Z,679.70
2018-11-07T05:10:21.185Z,1001.00
2018-11-07T05:11:21.148Z,802.60
2018-11-07T05:12:21.130Z,737.50
2018-11-07T05:13:21.059Z,613.90
2018-11-07T05:14:21.021Z,940.60
2018-11-07T05:15:20.978Z,973.80
2018-11-07T05:16:20.961Z,751.70
2018-11-07T05:17:20.892Z,1022.20
2018-11-07T05:18:20.861Z,677.90
2018-11-07T05:19:20.805Z,876.00
2018-11-07T05:20:20.781Z,663.90
2018-11-07T05:21:20.741Z,828.90
2018-11-07T05:22:20.697Z,897.80
2018-11-07T05:23:20.654Z,786.40
2018-11-07T05:24:20.610Z,660.60
2018-11-07T05:25:20.564Z,806.40
2018-11-07T05:26:20.619Z,754.50
2018-11-07T05:27:20.491Z,677.40
2018-11-07T05:28:20.445Z,776.30
2018-11-07T05:29:20.398Z,765.70
2018-11-07T05:30:20.349Z,539.40
2018-11-07T05:31:20.335Z,415.90
2018-11-07T05:32:20.291Z,945.10
2018-11-07T05:33:20.261Z,651.60
2018-11-07T05:34:20.196Z,717.10
2018-11-07T05:35:20.155Z,741.70
2018-11-07T05:36:20.115Z,1100.80
2018-11-07T05:37:20.073Z,814.50
2018-11-07T05:38:20.031Z,712.40
2018-11-07T05:39:19.998Z,645.70
2018-11-07T05:40:19.957Z,456.50
2018-11-07T05:41:19.964Z,587.40
2018-11-07T05:42:19.873Z,628.30
2018-11-07T05:43:19.823Z,508.60
2018-11-07T05:44:19.808Z,533.90
2018-11-07T05:45:19.734Z,524.00
2018-11-07T05:46:19.694Z,578.40
2018-11-07T05:47:19.665Z,800.70
2018-11-07T05:48:19.632Z,762.60
2018-11-07T05:49:19.579Z,754.40
2018-11-07T05:50:19.551Z,586.70
2018-11-07T05:51:19.488Z,795.00
2018-11-07T05:52:19.458Z,706.60
2018-11-07T05:53:19.416Z,705.80
2018-11-07T05:54:19.378Z,527.30
2018-11-07T05:55:19.335Z,852.50
2018-11-07T05:56:19.311Z,895.90
2018-11-07T05:57:19.248Z,656.70
2018-11-07T05:58:19.197Z,674.80
2018-11-07T05:59:19.193Z,571.20
2018-11-07T06:00:19.119Z,764.60
2018-11-07T06:01:19.084Z,680.90
2018-11-07T06:02:19.045Z,530.70
2018-11-07T06:03:19.014Z,539.80
2018-11-07T06:04:18.956Z,493.10
2018-11-07T06:05:18.934Z,762.10
2018-11-07T06:06:18.869Z,781.90
2018-11-07T06:07:18.835Z,917.70
2018-11-07T06:08:18.803Z,1048.80
2018-11-07T06:09:18.753Z,927.20
2018-11-07T06:10:18.714Z,1012.30
2018-11-07T06:11:18.697Z,506.40
2018-11-07T06:12:18.629Z,764.80
2018-11-07T06:13:18.585Z,638.00
2018-11-07T06:14:18.547Z,885.10
2018-11-07T06:15:18.531Z,721.90
2018-11-07T06:16:18.507Z,592.70
2018-11-07T06:17:18.426Z,906.60
2018-11-07T06:18:18.368Z,804.10
2018-11-07T06:19:18.343Z,578.20
2018-11-07T06:20:18.302Z,464.40
2018-11-07T06:21:18.270Z,654.20
2018-11-07T06:22:18.275Z,505.90
2018-11-07T06:23:18.176Z,556.60
2018-11-07T06:24:18.241Z,476.70
2018-11-07T06:25:18.083Z,488.80
2018-11-07T06:26:18.039Z,586.40
2018-11-07T06:27:17.995Z,653.80
2018-11-07T06:28:17.961Z,575.10
2018-11-07T06:29:17.905Z,439.80
2018-11-07T06:30:17.877Z,615.80
2018-11-07T06:31:17.835Z,589.30
2018-11-07T06:32:17.781Z,697.50
2018-11-07T06:33:17.753Z,406.60
2018-11-07T06:34:17.726Z,462.40
2018-11-07T06:35:17.673Z,571.70
2018-11-07T06:36:17.626Z,502.60
2018-11-07T06:37:17.598Z,564.90
2018-11-07T06:38:17.554Z,416.90
2018-11-07T06:39:17.517Z,450.70
2018-11-07T06:40:17.468Z,641.70
2018-11-07T06:41:17.428Z,583.90
2018-11-07T06:42:17.377Z,543.90
2018-11-07T06:43:17.332Z,598.70
2018-11-07T06:44:17.291Z,661.70
2018-11-07T06:45:17.273Z,507.70
2018-11-07T06:46:17.210Z,498.60
2018-11-07T06:47:17.178Z,618.00
2018-11-07T06:48:17.158Z,498.90
2018-11-07T06:49:17.078Z,568.70
2018-11-07T06:50:17.053Z,414.70
2018-11-07T06:51:17.005Z,531.30
2018-11-07T06:52:16.962Z,609.80
2018-11-07T06:53:16.926Z,449.40
2018-11-07T06:54:16.876Z,536.00
2018-11-07T06:55:16.840Z,568.90
2018-11-07T06:56:16.793Z,527.20
2018-11-07T06:57:16.764Z,608.20
2018-11-07T06:58:16.724Z,745.70
2018-11-07T06:59:16.683Z,628.10
2018-11-07T07:00:16.638Z,758.10
2018-11-07T07:01:16.658Z,797.00
2018-11-07T07:02:16.548Z,675.30
2018-11-07T07:03:16.507Z,754.80
2018-11-07T07:04:16.577Z,350.70
2018-11-07T07:05:16.421Z,345.50
2018-11-07T07:06:16.392Z,369.70
2018-11-07T07:07:16.344Z,311.20
2018-11-07T07:08:16.307Z,279.70
2018-11-07T07:09:16.257Z,374.40
2018-11-07T07:10:16.238Z,276.30
2018-11-07T07:11:16.174Z,370.40
2018-11-07T07:12:16.211Z,510.50
2018-11-07T07:13:16.097Z,396.90
2018-11-07T07:14:16.056Z,279.40
2018-11-07T07:15:16.010Z,276.10
2018-11-07T07:16:15.967Z,448.80
2018-11-07T07:17:15.952Z,611.20
2018-11-07T07:18:15.972Z,614.20
2018-11-07T07:19:15.841Z,337.30
2018-11-07T07:20:15.807Z,542.90
2018-11-07T07:21:15.809Z,586.50
2018-11-07T07:22:15.761Z,675.50
2018-11-07T07:23:15.696Z,542.50
2018-11-07T07:24:15.634Z,345.30
2018-11-07T07:25:15.616Z,690.60
2018-11-07T07:26:15.559Z,187.10
2018-11-07T07:27:15.533Z,203.20
2018-11-07T07:28:15.469Z,407.50
2018-11-07T07:29:15.441Z,223.30
2018-11-07T07:30:15.407Z,227.50
2018-11-07T07:31:15.378Z,329.00
2018-11-07T07:32:15.313Z,265.40
2018-11-07T07:33:15.316Z,389.70
2018-11-07T07:34:15.252Z,222.20
2018-11-07T07:35:15.207Z,310.50
2018-11-07T07:36:15.157Z,375.50
2018-11-07T07:37:15.114Z,463.70
2018-11-07T07:38:15.085Z,525.30
2018-11-07T07:39:15.057Z,269.40
2018-11-07T07:40:14.985Z,242.60
2018-11-07T07:41:14.948Z,363.10
2018-11-07T07:42:14.912Z,317.60
2018-11-07T07:43:14.873Z,203.50
2018-11-07T07:44:14.823Z,290.40
2018-11-07T07:45:14.789Z,175.70
2018-11-07T07:46:14.758Z,238.60
2018-11-07T07:47:14.708Z,285.20
2018-11-07T07:48:14.681Z,147.30
2018-11-07T07:49:14.678Z,159.70
2018-11-07T07:50:14.587Z,183.40
2018-11-07T07:51:14.547Z,163.10
2018-11-07T07:52:14.578Z,217.60
2018-11-07T07:53:14.576Z,181.70
2018-11-07T07:54:14.445Z,129.30
2018-11-07T07:55:14.394Z,130.50
2018-11-07T07:56:14.361Z,160.40
2018-11-07T07:57:14.321Z,177.60
2018-11-07T07:58:14.285Z,174.30
2018-11-07T07:59:14.232Z,210.40
2018-11-07T08:00:14.201Z,162.30
2018-11-07T08:01:14.151Z,168.70
2018-11-07T08:02:14.109Z,166.20
2018-11-07T08:03:14.070Z,163.30
2018-11-07T08:04:14.057Z,163.40
2018-11-07T08:05:14.013Z,148.90
2018-11-07T08:06:13.967Z,137.10
2018-11-07T08:07:13.914Z,200.90
2018-11-07T08:08:13.875Z,110.20
2018-11-07T08:09:13.842Z,95.70
2018-11-07T08:10:13.811Z,92.80
2018-11-07T08:11:13.779Z,95.20
2018-11-07T08:12:13.733Z,130.50
2018-11-07T08:13:13.693Z,99.50
2018-11-07T08:14:13.665Z,84.60
2018-11-07T08:15:13.631Z,73.40
2018-11-07T08:16:13.586Z,88.60
2018-11-07T08:17:13.553Z,77.70
2018-11-07T08:18:13.513Z,71.10
2018-11-07T08:19:13.476Z,67.20
2018-11-07T08:20:13.446Z,66.10
2018-11-07T08:21:13.485Z,68.50
2018-11-07T08:22:13.371Z,59.40
2018-11-07T08:23:13.356Z,107.60
2018-11-07T08:24:13.310Z,69.50
2018-11-07T08:25:13.265Z,62.10
2018-11-07T08:26:13.222Z,56.70
2018-11-07T08:27:13.188Z,59.90
2018-11-07T08:28:13.171Z,57.40
2018-11-07T08:29:13.116Z,61.50
2018-11-07T08:30:13.074Z,53.70
2018-11-07T08:31:13.046Z,65.00
2018-11-07T08:32:13.003Z,57.50
2018-11-07T08:33:12.976Z,58.90
2018-11-07T08:34:12.936Z,55.30
2018-11-07T08:35:12.907Z,56.10
2018-11-07T08:36:12.866Z,51.50
2018-11-07T08:37:12.823Z,51.20
2018-11-07T08:38:12.800Z,53.50
2018-11-07T08:39:12.762Z,51.10
2018-11-07T08:40:12.734Z,51.80
2018-11-07T08:41:12.694Z,51.90
2018-11-07T08:42:12.728Z,49.40
2018-11-07T08:43:12.617Z,48.80
2018-11-07T08:44:12.589Z,51.50
2018-11-07T08:45:12.561Z,45.40
2018-11-07T08:46:12.515Z,43.80
2018-11-07T08:47:12.488Z,45.10
2018-11-07T08:48:12.472Z,42.30
2018-11-07T08:49:12.471Z,40.80
2018-11-07T08:50:12.378Z,42.10
2018-11-07T08:51:12.362Z,38.90
2018-11-07T08:52:12.333Z,36.20
2018-11-07T08:53:12.273Z,37.60
2018-11-07T08:54:12.250Z,39.90
2018-11-07T08:55:12.312Z,36.80
2018-11-07T08:56:12.174Z,36.20
2018-11-07T08:57:12.143Z,35.20
2018-11-07T08:58:12.113Z,36.80
2018-11-07T08:59:12.089Z,35.90
2018-11-07T09:00:12.048Z,35.90
2018-11-07T09:01:12.137Z,34.00
2018-11-07T09:02:12.057Z,33.90
2018-11-07T09:03:11.956Z,33.80
2018-11-07T09:04:11.933Z,35.00
2018-11-07T09:05:11.902Z,33.00
2018-11-07T09:06:11.867Z,31.50
2018-11-07T09:07:11.839Z,30.70
2018-11-07T09:08:11.810Z,30.80
2018-11-07T09:09:11.770Z,30.50
2018-11-07T09:10:11.739Z,28.90
2018-11-07T09:11:11.717Z,24.60
2018-11-07T09:12:11.784Z,26.80
2018-11-07T09:13:11.661Z,26.40
2018-11-07T09:14:11.615Z,26.30
2018-11-07T09:15:11.589Z,25.40
2018-11-07T09:16:11.564Z,25.80
2018-11-07T09:17:11.543Z,25.60
2018-11-07T09:18:11.497Z,24.40
2018-11-07T09:19:11.478Z,24.90
2018-11-07T09:20:11.456Z,24.40
2018-11-07T09:21:11.424Z,25.30
2018-11-07T09:22:11.395Z,23.70
2018-11-07T09:23:11.359Z,23.80
2018-11-07T09:24:11.387Z,23.60
2018-11-07T09:25:11.308Z,24.60
2018-11-07T09:26:11.294Z,22.90
2018-11-07T09:27:11.263Z,23.20
2018-11-07T09:28:11.231Z,23.10
2018-11-07T09:29:11.287Z,23.30
2018-11-07T09:30:11.188Z,21.50
2018-11-07T09:31:11.179Z,22.00
2018-11-07T09:32:11.126Z,22.20
2018-11-07T09:33:11.105Z,22.00
2018-11-07T09:34:11.074Z,21.30
2018-11-07T09:35:11.054Z,20.70
2018-11-07T09:36:11.012Z,20.90
2018-11-07T09:37:10.999Z,21.60
2018-11-07T09:38:10.976Z,22.30
2018-11-07T09:39:10.973Z,20.90
2018-11-07T09:40:10.936Z,21.30
2018-11-07T09:41:10.902Z,21.20
2018-11-07T09:42:10.870Z,20.70
2018-11-07T09:43:10.847Z,20.90
2018-11-07T09:44:10.814Z,21.10
2018-11-07T09:45:10.790Z,21.20
2018-11-07T09:46:10.785Z,18.70
2018-11-07T09:47:10.730Z,19.70
2018-11-07T09:48:10.777Z,20.10
2018-11-07T09:49:10.696Z,20.20
2018-11-07T09:50:10.661Z,19.70
2018-11-07T09:51:10.628Z,19.60
2018-11-07T09:52:10.614Z,19.00
2018-11-07T09:53:10.577Z,20.40
2018-11-07T09:54:10.604Z,19.90
2018-11-07T09:55:10.512Z,19.30
2018-11-07T09:56:10.508Z,19.20
2018-11-07T09:57:10.467Z,19.90
2018-11-07T09:58:10.454Z,19.90
2018-11-07T09:59:10.452Z,20.30
2018-11-07T10:00:10.403Z,20.20
2018-11-07T10:01:10.376Z,19.90
2018-11-07T10:02:10.339Z,19.80
2018-11-07T10:03:10.314Z,19.00
2018-11-07T10:04:10.280Z,17.70
2018-11-07T10:05:10.274Z,20.20
2018-11-07T10:06:10.255Z,20.30
2018-11-07T10:07:10.213Z,19.00
2018-11-07T10:08:10.174Z,19.60
2018-11-07T10:09:10.159Z,15.90
2018-11-07T10:10:10.124Z,18.50
2018-11-07T10:11:10.113Z,19.50
2018-11-07T10:12:10.087Z,19.40
2018-11-07T10:13:10.056Z,18.50
2018-11-07T10:14:10.004Z,18.10
2018-11-07T10:15:09.988Z,16.30
2018-11-07T10:16:09.960Z,18.50
2018-11-07T10:17:09.947Z,19.10
2018-11-07T10:18:09.902Z,16.10
2018-11-07T10:19:09.893Z,18.40
2018-11-07T10:20:09.855Z,19.40
2018-11-07T10:21:09.834Z,18.70
2018-11-07T10:22:09.812Z,17.50
2018-11-07T10:23:09.783Z,18.30
2018-11-07T10:24:09.747Z,18.50
2018-11-07T10:25:09.733Z,18.20
2018-11-07T10:26:09.727Z,18.50
2018-11-07T10:27:09.766Z,17.90
2018-11-07T10:28:10.133Z,18.50
2018-11-07T10:29:09.864Z,17.60
2018-11-07T10:30:09.692Z,17.70
2018-11-07T10:31:09.566Z,18.20
2018-11-07T10:32:09.558Z,17.40
2018-11-07T10:33:09.499Z,15.90
2018-11-07T10:34:09.489Z,17.50
2018-11-07T10:35:09.456Z,17.90
2018-11-07T10:36:09.451Z,17.40
2018-11-07T10:37:09.405Z,17.10
2018-11-07T10:38:09.507Z,17.80
2018-11-07T10:39:09.356Z,17.30
2018-11-07T10:40:09.329Z,17.80
2018-11-07T10:41:09.326Z,15.00
2018-11-07T10:42:09.274Z,13.10
2018-11-07T10:43:09.272Z,17.80
2018-11-07T10:44:09.246Z,17.90
2018-11-07T10:45:09.208Z,12.60
2018-11-07T10:46:09.230Z,12.50
2018-11-07T10:47:09.144Z,13.00
2018-11-07T10:48:09.108Z,15.90
2018-11-07T10:49:09.099Z,17.10
2018-11-07T10:50:09.063Z,17.60
2018-11-07T10:51:09.069Z,18.10
2018-11-07T10:52:09.039Z,19.40
2018-11-07T10:53:08.974Z,18.20
2018-11-07T10:54:08.954Z,19.00
2018-11-07T10:55:08.915Z,20.20
2018-11-07T10:56:08.886Z,19.80
2018-11-07T10:57:08.868Z,19.40
2018-11-07T10:58:08.845Z,18.90
2018-11-07T10:59:08.831Z,18.70
2018-11-07T11:00:08.784Z,19.40
2018-11-07T11:01:08.768Z,18.50
2018-11-07T11:02:08.731Z,18.40
2018-11-07T11:03:08.715Z,17.90
2018-11-07T11:04:08.694Z,17.50
2018-11-07T11:05:08.737Z,17.20
2018-11-07T11:06:08.640Z,18.50
2018-11-07T11:07:08.628Z,18.10
2018-11-07T11:08:08.593Z,17.80
2018-11-07T11:09:08.565Z,18.50
2018-11-07T11:10:08.522Z,17.90
2018-11-07T11:11:08.549Z,18.20
2018-11-07T11:12:08.475Z,18.00
2018-11-07T11:13:08.456Z,18.00
2018-11-07T11:14:08.434Z,17.60
2018-11-07T11:15:08.388Z,17.80
2018-11-07T11:16:08.386Z,17.80
2018-11-07T11:17:08.359Z,17.00
2018-11-07T11:18:08.309Z,17.80
2018-11-07T11:19:08.300Z,17.90
2018-11-07T11:20:08.265Z,18.10
2018-11-07T11:21:08.232Z,17.60
2018-11-07T11:22:08.210Z,17.40
2018-11-07T11:23:08.191Z,18.30
2018-11-07T11:24:08.155Z,16.80
2018-11-07T11:25:08.132Z,17.10
2018-11-07T11:26:08.112Z,17.00
2018-11-07T11:27:08.134Z,16.70
2018-11-07T11:28:08.088Z,18.20
2018-11-07T11:29:08.039Z,17.30
2018-11-07T11:30:07.993Z,17.50
2018-11-07T11:31:07.980Z,17.10
2018-11-07T11:32:07.946Z,17.60
2018-11-07T11:33:07.946Z,16.50
2018-11-07T11:34:08.106Z,15.90
2018-11-07T11:35:08.033Z,15.50
2018-11-07T11:36:07.846Z,17.10
2018-11-07T11:37:07.839Z,17.20
2018-11-07T11:38:07.819Z,17.00
2018-11-07T11:39:07.774Z,16.40
2018-11-07T11:40:07.809Z,15.90
2018-11-07T11:41:07.819Z,17.30
2018-11-07T11:42:07.694Z,16.40
2018-11-07T11:43:07.668Z,15.90
2018-11-07T11:44:07.627Z,16.40
2018-11-07T11:45:07.604Z,17.10
2018-11-07T11:46:07.583Z,16.90
2018-11-07T11:47:07.565Z,17.20
2018-11-07T11:48:07.528Z,17.30
2018-11-07T11:49:07.587Z,17.60
2018-11-07T11:50:07.477Z,17.20
2018-11-07T11:51:07.469Z,17.70
2018-11-07T11:52:07.431Z,16.90
2018-11-07T11:53:07.396Z,16.50
2018-11-07T11:54:07.381Z,16.80
2018-11-07T11:55:07.345Z,17.00
2018-11-07T11:56:07.314Z,16.30
2018-11-07T11:57:07.297Z,16.70
2018-11-07T11:58:07.264Z,17.50
2018-11-07T11:59:07.363Z,17.10
2018-11-07T12:00:07.538Z,17.20
2018-11-07T12:01:07.189Z,17.60
2018-11-07T12:02:07.212Z,18.10
2018-11-07T12:03:07.158Z,18.50
2018-11-07T12:04:07.111Z,17.90
2018-11-07T12:05:07.093Z,17.40
2018-11-07T12:06:07.091Z,17.40
2018-11-07T12:07:07.060Z,17.30
2018-11-07T12:08:07.059Z,17.60
2018-11-07T12:09:07.032Z,16.80
2018-11-07T12:10:06.986Z,16.90
2018-11-07T12:11:06.943Z,17.40
2018-11-07T12:12:06.978Z,18.00
2018-11-07T12:13:06.934Z,17.50
2018-11-07T12:14:06.888Z,17.80
2018-11-07T12:15:06.883Z,17.00
2018-11-07T12:16:06.810Z,17.60
2018-11-07T12:17:06.804Z,17.30
2018-11-07T12:18:06.765Z,17.10
2018-11-07T12:19:06.735Z,15.30
2018-11-07T12:20:06.760Z,17.50
2018-11-07T12:21:06.699Z,17.20
2018-11-07T12:22:06.658Z,16.90
2018-11-07T12:23:06.631Z,16.60
2018-11-07T12:24:06.610Z,16.80
2018-11-07T12:25:06.604Z,15.10
2018-11-07T12:26:06.557Z,15.60
2018-11-07T12:27:06.532Z,16.30
2018-11-07T12:28:06.513Z,16.60
2018-11-07T12:29:06.479Z,15.80
2018-11-07T12:30:06.462Z,16.20
2018-11-07T12:31:06.435Z,16.40
2018-11-07T12:32:06.393Z,17.70
2018-11-07T12:33:06.393Z,16.20
2018-11-07T12:34:06.353Z,15.60
2018-11-07T12:35:06.321Z,16.40
2018-11-07T12:36:06.297Z,16.10